Farmingdale, NY (11735)

12:33 AM EDT on October 01, 2014 (GMT -0400)
Nassau/Suffolk County Line | Change Station
CLOSE
Current Station
Personal Weather Station
Location: East Farmingdale, NY
Elevation: 88 ft
Nearby Weather Stations

Elev 88 ft 40.73 °N, 73.43 °W | Updated 6 minutes ago

Overcast
Overcast
61.4 °F
Feels Like 61.4 °F
N
4.0
Wind Variable Wind from NE
Gusts 7.0 mph

Today
High -- | Low -- °F
--% Chance of Precip.
Yesterday
High -- | Low -- °F
Precip. -- in
6:50 AM 6:35 PM
Waxing Crescent, 43% visible
Pressure 29.99 in
Visibility 10.0 miles
Clouds Mostly Cloudy 1300 ft
Overcast 3500 ft
Dew Point 60 °F
Humidity 94%
Rainfall 0.00 in
Snow Depth Not available.
UV 0 out of 12
Pollen 1.80 out of 12
Air Quality Not available.
Flu Activity Not available.
METAR KFRG 010353Z AUTO 03005KT 10SM BKN013 OVC035 17/15 A2999 RMK AO2 SLP155 T01670150 TSNO

More Conditions Fewer Conditions

Pressure 29.99 in
Visibility 10.0 miles
Clouds Mostly Cloudy 1300 ft
Overcast 3500 ft
Dew Point 60 °F
Humidity 94%
Rainfall 0.00 in
Snow Depth Not available.
UV 0 out of 12
Pollen 1.80 out of 12
Air Quality Not available.
Flu Activity Not available.
METAR KFRG 010353Z AUTO 03005KT 10SM BKN013 OVC035 17/15 A2999 RMK AO2 SLP155 T01670150 TSNO

More Conditions Fewer Conditions

10-Day Weather Forecast

Almanac

Astronomy

Oct. 01, 2014 Rise Set
Actual Time 6:50 AM EDT 6:35 PM EDT
Civil Twilight 6:22 AM EDT 7:03 PM EDT
Nautical Twilight 5:51 AM EDT 7:34 PM EDT
Astronomical Twilight 5:19 AM EDT 8:06 PM EDT
Moon 1:50 PM EDT No Moon Set
Length of Visible Light 12h 40m
Length of Day
11h 45m
Tomorrow will be 2m 40s shorter.
Waxing Crescent, 43% of the Moon is Illuminated
Today
Waxing Crescent
Oct 1
First Quarter
Oct 8
Full
Oct 15
Last Quarter
Oct 23
New

Today's Extremes

State Highs State Lows

Community

WunderPhotos

Upload Photos

1,757,845 photos uploaded!

Nearby

Snow Depth

Station Depth Elevation
No new snow has been reported.

Earthquake Activity

City Distance Mag. Time & Date
No recent earthquake activity has been reported nearby.
Minimum magnitude displayed is 2.5.

Coastal Water Temperatures

Place Temperature
No Stations Reporting

Nearby Weather Stations